createdAt,value
2018-11-03T03:24:52.154Z,7.40
2018-11-03T03:25:30.334Z,8.13
2018-11-03T03:26:09.268Z,6.40
2018-11-03T03:26:47.316Z,7.40
2018-11-03T03:27:25.313Z,6.83
2018-11-03T03:28:03.330Z,7.00
2018-11-03T03:28:41.304Z,8.50
2018-11-03T03:29:19.440Z,7.30
2018-11-03T03:29:57.576Z,8.20
2018-11-03T03:30:35.633Z,7.47
2018-11-03T03:31:13.608Z,7.47
2018-11-03T03:31:51.502Z,7.10
2018-11-03T03:32:29.535Z,7.63
2018-11-03T03:33:07.349Z,7.60
2018-11-03T03:33:45.252Z,7.50
2018-11-03T03:34:23.345Z,8.07
2018-11-03T03:35:01.437Z,7.07
2018-11-03T03:35:39.517Z,7.50
2018-11-03T03:36:17.586Z,7.60
2018-11-03T03:36:55.556Z,7.77
2018-11-03T03:37:33.583Z,7.27
2018-11-03T03:38:11.589Z,7.33
2018-11-03T03:38:49.701Z,8.30
2018-11-03T03:39:27.498Z,8.17
2018-11-03T03:40:05.457Z,7.73
2018-11-03T03:40:43.417Z,7.87
2018-11-03T03:41:21.614Z,8.30
2018-11-03T03:41:59.561Z,7.30
2018-11-03T03:42:37.478Z,7.47
2018-11-03T03:43:15.360Z,7.90
2018-11-03T03:43:53.332Z,8.27
2018-11-03T03:44:31.180Z,7.67
2018-11-03T03:45:10.290Z,9.07
2018-11-03T03:45:48.317Z,8.17
2018-11-03T03:46:26.261Z,8.07
2018-11-03T03:47:05.429Z,7.30
2018-11-03T03:47:44.217Z,7.90
2018-11-03T03:48:22.314Z,8.30
2018-11-03T03:49:00.457Z,9.20
2018-11-03T03:49:38.303Z,8.97
2018-11-03T03:50:16.367Z,8.23
2018-11-03T03:50:54.243Z,8.80
2018-11-03T03:51:33.264Z,8.47
2018-11-03T03:52:12.400Z,8.00
2018-11-03T03:52:50.289Z,9.50
2018-11-03T03:53:28.435Z,7.30
2018-11-03T03:54:06.620Z,7.30
2018-11-03T03:54:44.561Z,8.33
2018-11-03T03:55:23.774Z,7.47
2018-11-03T03:56:01.671Z,9.00
2018-11-03T03:56:39.720Z,7.67
2018-11-03T03:57:17.648Z,7.67
2018-11-03T03:57:55.630Z,7.90
2018-11-03T03:58:33.477Z,6.33
2018-11-03T03:59:11.454Z,7.63
2018-11-03T03:59:49.569Z,7.83
2018-11-03T04:00:27.442Z,7.20
2018-11-03T04:01:05.489Z,8.50
2018-11-03T04:01:43.535Z,7.80
2018-11-03T04:02:21.502Z,7.60
2018-11-03T04:02:59.542Z,8.00
2018-11-03T04:03:37.441Z,7.97
2018-11-03T04:04:15.547Z,8.00
2018-11-03T04:04:54.076Z,7.97
2018-11-03T04:05:32.129Z,8.07
2018-11-03T04:06:10.144Z,7.87
2018-11-03T04:06:48.129Z,7.70
2018-11-03T04:07:26.100Z,8.13
2018-11-03T04:08:03.956Z,8.40
2018-11-03T04:08:41.870Z,7.80
2018-11-03T04:09:19.892Z,7.77
2018-11-03T04:09:57.861Z,7.50
2018-11-03T04:10:35.800Z,7.70
2018-11-03T04:11:13.677Z,7.40
2018-11-03T04:11:51.658Z,7.50
2018-11-03T04:12:30.731Z,7.53
2018-11-03T04:13:09.019Z,7.20
2018-11-03T04:13:47.048Z,6.90
2018-11-03T04:14:25.166Z,7.00
2018-11-03T04:15:03.016Z,6.70
2018-11-03T04:15:40.973Z,8.30
2018-11-03T04:16:19.049Z,8.10
2018-11-03T04:16:57.035Z,9.13
2018-11-03T04:17:35.095Z,6.93
2018-11-03T04:18:12.976Z,7.20
2018-11-03T04:18:50.790Z,7.20
2018-11-03T04:19:28.694Z,7.80
2018-11-03T04:20:06.731Z,7.70
2018-11-03T04:20:44.668Z,7.83
2018-11-03T04:21:27.232Z,8.40
2018-11-03T04:22:05.214Z,8.47
2018-11-03T04:22:43.683Z,8.00
2018-11-03T04:23:21.711Z,8.67
2018-11-03T04:24:00.080Z,9.27
2018-11-03T04:24:38.623Z,8.57
2018-11-03T04:25:16.546Z,9.10
2018-11-03T04:25:54.408Z,8.00
2018-11-03T04:26:32.973Z,8.70
2018-11-03T04:27:11.016Z,8.97
2018-11-03T04:27:49.845Z,8.83
2018-11-03T04:28:28.363Z,8.70
2018-11-03T04:29:06.217Z,8.73
2018-11-03T04:29:44.331Z,8.20
2018-11-03T04:30:22.414Z,8.80
2018-11-03T04:31:00.354Z,8.33
2018-11-03T04:31:38.327Z,9.00
2018-11-03T04:32:16.365Z,8.03
2018-11-03T04:32:54.518Z,8.20
2018-11-03T04:33:32.435Z,7.97
2018-11-03T04:34:11.475Z,7.73
2018-11-03T04:34:50.208Z,8.60
2018-11-03T04:35:29.463Z,7.73
2018-11-03T04:36:07.503Z,7.23
2018-11-03T04:36:45.663Z,7.83
2018-11-03T04:37:23.816Z,7.73
2018-11-03T04:38:01.985Z,8.40
2018-11-03T04:38:39.995Z,8.20
2018-11-03T04:39:18.908Z,8.10
2018-11-03T04:39:56.856Z,7.80
2018-11-03T04:40:35.317Z,7.50
2018-11-03T04:41:13.303Z,8.13
2018-11-03T04:41:51.340Z,8.53
2018-11-03T04:42:29.676Z,8.93
2018-11-03T04:43:07.683Z,8.13
2018-11-03T04:43:45.687Z,8.27
2018-11-03T04:44:23.623Z,8.17
2018-11-03T04:45:01.599Z,7.53
2018-11-03T04:45:39.924Z,8.23
2018-11-03T04:46:17.768Z,7.97
2018-11-03T04:46:56.055Z,8.50
2018-11-03T04:47:33.995Z,8.30
2018-11-03T04:48:12.280Z,8.30
2018-11-03T04:48:50.778Z,7.37
2018-11-03T04:49:28.797Z,8.10
2018-11-03T04:50:06.921Z,8.13
2018-11-03T04:50:44.820Z,8.23
2018-11-03T04:51:23.079Z,8.07
2018-11-03T04:52:01.097Z,7.40
2018-11-03T04:52:39.356Z,8.07
2018-11-03T04:53:18.014Z,7.77
2018-11-03T04:53:58.376Z,8.40
2018-11-03T04:54:36.433Z,8.40
2018-11-03T04:55:14.494Z,8.00
2018-11-03T04:55:52.629Z,8.40
2018-11-03T04:56:30.834Z,7.97
2018-11-03T04:57:09.128Z,8.17
2018-11-03T04:57:47.400Z,7.70
2018-11-03T04:58:25.508Z,8.00
2018-11-03T04:59:03.589Z,7.23
2018-11-03T04:59:41.543Z,7.73
2018-11-03T05:00:19.519Z,7.73
2018-11-03T05:00:58.766Z,9.97
2018-11-03T05:01:36.728Z,7.40
2018-11-03T05:02:15.195Z,8.20
2018-11-03T05:02:53.232Z,7.27
2018-11-03T05:03:32.316Z,8.27
2018-11-03T05:04:10.572Z,7.93
2018-11-03T05:04:48.691Z,7.90
2018-11-03T05:05:26.745Z,7.37
2018-11-03T05:06:04.913Z,8.20
2018-11-03T05:06:43.141Z,8.27
2018-11-03T05:07:21.258Z,8.00
2018-11-03T05:07:59.417Z,7.60
2018-11-03T05:08:37.276Z,8.13
2018-11-03T05:09:15.184Z,7.93
2018-11-03T05:09:53.179Z,7.73
2018-11-03T05:10:31.699Z,8.13
2018-11-03T05:11:10.030Z,8.13
2018-11-03T05:11:48.261Z,7.30
2018-11-03T05:12:26.577Z,7.23
2018-11-03T05:13:04.822Z,8.57
2018-11-03T05:13:42.791Z,8.90
2018-11-03T05:14:20.886Z,8.00
2018-11-03T05:14:58.908Z,8.00
2018-11-03T05:15:36.876Z,8.20
2018-11-03T05:16:14.950Z,8.10
2018-11-03T05:16:53.142Z,8.80
2018-11-03T05:17:31.088Z,7.80
2018-11-03T05:18:09.247Z,8.13
2018-11-03T05:18:47.185Z,8.90
2018-11-03T05:19:25.412Z,8.30
2018-11-03T05:20:03.375Z,8.80
2018-11-03T05:20:42.297Z,8.67
2018-11-03T05:21:20.258Z,8.20
2018-11-03T05:21:58.419Z,8.97
2018-11-03T05:22:36.736Z,9.10
2018-11-03T05:23:14.602Z,9.10
2018-11-03T05:23:52.609Z,9.23
2018-11-03T05:24:30.708Z,8.57
2018-11-03T05:25:08.688Z,8.20
2018-11-03T05:25:46.817Z,8.97
2018-11-03T05:26:25.002Z,9.90
2018-11-03T05:27:03.441Z,9.90
2018-11-03T05:27:41.880Z,9.20
2018-11-03T05:28:19.769Z,9.63
2018-11-03T05:28:57.916Z,8.93
2018-11-03T05:29:35.827Z,8.23
2018-11-03T05:30:14.686Z,9.40
2018-11-03T05:30:52.672Z,8.00
2018-11-03T05:31:30.765Z,9.53
2018-11-03T05:32:09.113Z,8.70
2018-11-03T05:32:47.300Z,9.27
2018-11-03T05:33:25.670Z,8.70
2018-11-03T05:34:03.709Z,7.50
2018-11-03T05:34:41.934Z,8.50
2018-11-03T05:35:19.847Z,9.13
2018-11-03T05:35:57.833Z,9.00
2018-11-03T05:36:35.735Z,9.03
2018-11-03T05:37:13.643Z,8.40
2018-11-03T05:37:51.754Z,9.80
2018-11-03T05:38:29.678Z,8.90
2018-11-03T05:39:12.946Z,8.40
2018-11-03T05:39:50.909Z,8.10
2018-11-03T05:40:28.912Z,9.20
2018-11-03T05:41:07.586Z,8.90
2018-11-03T05:41:45.893Z,8.83
2018-11-03T05:42:25.645Z,9.40
2018-11-03T05:43:03.505Z,9.53
2018-11-03T05:43:42.224Z,9.83
2018-11-03T05:44:20.274Z,9.87
2018-11-03T05:44:58.427Z,10.07
2018-11-03T05:45:36.579Z,9.63
2018-11-03T05:46:14.814Z,8.63
2018-11-03T05:46:52.744Z,8.67
2018-11-03T05:47:30.699Z,9.57
2018-11-03T05:48:08.660Z,9.57
2018-11-03T05:48:46.685Z,8.57
2018-11-03T05:49:24.693Z,8.30
2018-11-03T05:50:02.756Z,8.67
2018-11-03T05:50:40.853Z,8.37
2018-11-03T05:51:18.808Z,9.77
2018-11-03T05:51:56.771Z,8.27
2018-11-03T05:52:34.835Z,8.93
2018-11-03T05:53:12.896Z,9.60
2018-11-03T05:53:50.888Z,9.23
2018-11-03T05:54:28.997Z,8.90
2018-11-03T05:55:07.125Z,8.90
2018-11-03T05:55:45.187Z,9.10
2018-11-03T05:56:23.216Z,9.03
2018-11-03T05:57:01.149Z,9.00
2018-11-03T05:57:39.137Z,9.33
2018-11-03T05:58:17.141Z,8.37
2018-11-03T05:58:55.357Z,9.47
2018-11-03T05:59:33.922Z,9.33
2018-11-03T06:00:12.914Z,8.87
2018-11-03T06:00:50.896Z,9.27
2018-11-03T06:01:28.970Z,9.53
2018-11-03T06:02:07.836Z,9.10
2018-11-03T06:02:46.043Z,9.03
2018-11-03T06:03:24.103Z,9.30
2018-11-03T06:04:02.109Z,8.70
2018-11-03T06:04:40.241Z,9.37
2018-11-03T06:05:20.749Z,8.70
2018-11-03T06:05:58.794Z,8.60
2018-11-03T06:06:36.821Z,9.53
2018-11-03T06:07:14.698Z,9.47
2018-11-03T06:07:52.590Z,8.50
2018-11-03T06:08:30.536Z,8.87
2018-11-03T06:09:10.554Z,8.73
2018-11-03T06:09:49.624Z,9.10
2018-11-03T06:10:27.542Z,9.10
2018-11-03T06:11:05.590Z,9.50
2018-11-03T06:11:43.537Z,9.20
2018-11-03T06:12:21.502Z,8.90
2018-11-03T06:13:00.490Z,8.87
2018-11-03T06:13:38.611Z,9.90
2018-11-03T06:14:16.609Z,11.00
2018-11-03T06:14:55.690Z,9.30
2018-11-03T06:15:33.819Z,9.97
2018-11-03T06:16:11.956Z,9.13
2018-11-03T06:16:49.819Z,9.80
2018-11-03T06:17:27.688Z,10.47
2018-11-03T06:18:05.738Z,10.50
2018-11-03T06:18:43.913Z,9.83
2018-11-03T06:19:21.858Z,9.47
2018-11-03T06:19:59.930Z,9.00
2018-11-03T06:20:37.926Z,9.53
2018-11-03T06:21:15.964Z,8.80
2018-11-03T06:21:53.860Z,8.93
2018-11-03T06:22:31.912Z,9.87
2018-11-03T06:23:10.401Z,9.07
2018-11-03T06:23:48.508Z,9.53
2018-11-03T06:24:26.844Z,9.93
2018-11-03T06:25:04.924Z,9.40
2018-11-03T06:25:42.962Z,9.40
2018-11-03T06:26:21.216Z,9.07
2018-11-03T06:26:59.145Z,8.83
2018-11-03T06:27:38.393Z,10.00
2018-11-03T06:28:16.299Z,8.40
2018-11-03T06:28:54.813Z,9.30
2018-11-03T06:29:32.741Z,9.87
2018-11-03T06:30:12.851Z,8.77
2018-11-03T06:30:51.221Z,9.90
2018-11-03T06:31:29.618Z,9.43
2018-11-03T06:32:07.772Z,9.17
2018-11-03T06:32:45.620Z,9.13
2018-11-03T06:33:23.545Z,9.17
2018-11-03T06:34:02.321Z,9.30
2018-11-03T06:34:40.325Z,10.47
2018-11-03T06:35:18.264Z,8.77
2018-11-03T06:35:56.207Z,9.60
2018-11-03T06:36:34.312Z,8.80
2018-11-03T06:37:12.234Z,9.83
2018-11-03T06:37:50.201Z,10.33
2018-11-03T06:38:28.106Z,10.43
2018-11-03T06:39:06.979Z,9.77
2018-11-03T06:39:45.133Z,10.27
2018-11-03T06:40:23.318Z,11.47
2018-11-03T06:41:01.172Z,9.90
2018-11-03T06:41:40.406Z,11.07
2018-11-03T06:42:18.653Z,11.03
2018-11-03T06:42:56.701Z,10.23
2018-11-03T06:43:34.701Z,10.53
2018-11-03T06:44:12.624Z,10.73
2018-11-03T06:44:50.994Z,10.33
2018-11-03T06:45:28.883Z,10.27
2018-11-03T06:46:06.816Z,10.47
2018-11-03T06:46:44.881Z,11.10
2018-11-03T06:47:22.819Z,11.20
2018-11-03T06:48:01.092Z,10.13
2018-11-03T06:48:39.141Z,11.33
2018-11-03T06:49:22.859Z,11.13
2018-11-03T06:50:00.968Z,11.80
2018-11-03T06:50:40.189Z,11.30
2018-11-03T06:51:18.185Z,10.30
2018-11-03T06:51:56.314Z,10.50
2018-11-03T06:52:34.295Z,11.90
2018-11-03T06:53:12.506Z,11.07
2018-11-03T06:53:50.680Z,11.63
2018-11-03T06:54:28.668Z,10.90
2018-11-03T06:55:06.652Z,10.90
2018-11-03T06:55:45.689Z,11.40
2018-11-03T06:56:23.610Z,10.97
2018-11-03T06:57:01.592Z,11.43
2018-11-03T06:57:39.656Z,10.13
2018-11-03T06:58:18.113Z,10.97
2018-11-03T06:58:56.037Z,10.40
2018-11-03T06:59:34.329Z,10.67
2018-11-03T07:00:13.037Z,10.80
2018-11-03T07:00:52.530Z,9.70
2018-11-03T07:01:30.582Z,12.03
2018-11-03T07:02:08.668Z,10.83
2018-11-03T07:02:46.711Z,10.93
2018-11-03T07:03:24.790Z,11.30
2018-11-03T07:04:02.718Z,11.30
2018-11-03T07:04:40.667Z,10.50
2018-11-03T07:05:18.703Z,11.63
2018-11-03T07:05:56.710Z,10.63
2018-11-03T07:06:34.569Z,11.60
2018-11-03T07:07:12.621Z,11.17
2018-11-03T07:07:50.603Z,11.10
2018-11-03T07:08:28.502Z,11.20
2018-11-03T07:09:07.450Z,11.23
2018-11-03T07:09:45.528Z,10.93
2018-11-03T07:10:23.658Z,12.07
2018-11-03T07:11:01.721Z,11.57
2018-11-03T07:11:40.281Z,11.37
2018-11-03T07:12:18.221Z,11.63
2018-11-03T07:12:56.413Z,11.60
2018-11-03T07:13:34.584Z,12.67
2018-11-03T07:14:12.996Z,13.23
2018-11-03T07:14:51.060Z,13.40
2018-11-03T07:15:29.069Z,12.97
2018-11-03T07:16:06.944Z,11.90
2018-11-03T07:16:44.989Z,12.60
2018-11-03T07:17:23.101Z,11.60
2018-11-03T07:18:00.980Z,11.40
2018-11-03T07:18:39.086Z,13.20
2018-11-03T07:19:17.056Z,12.63
2018-11-03T07:19:55.029Z,12.70
2018-11-03T07:20:33.197Z,12.27
2018-11-03T07:21:11.219Z,11.70
2018-11-03T07:21:49.434Z,12.23
2018-11-03T07:22:27.617Z,12.00
2018-11-03T07:23:05.556Z,11.27
2018-11-03T07:23:43.521Z,11.57
2018-11-03T07:24:21.521Z,12.30
2018-11-03T07:24:59.451Z,11.20
2018-11-03T07:25:37.413Z,10.80
2018-11-03T07:26:15.400Z,11.17
2018-11-03T07:26:53.463Z,10.30
2018-11-03T07:27:31.368Z,10.77
2018-11-03T07:28:09.500Z,10.90
2018-11-03T07:28:47.537Z,11.20
2018-11-03T07:29:25.566Z,12.77
2018-11-03T07:30:04.597Z,13.30
2018-11-03T07:30:42.613Z,12.53
2018-11-03T07:31:20.481Z,12.40
2018-11-03T07:31:58.414Z,14.50
2018-11-03T07:32:36.292Z,13.60
2018-11-03T07:33:14.315Z,13.53
2018-11-03T07:33:52.312Z,13.60
2018-11-03T07:34:30.404Z,14.43
2018-11-03T07:35:08.562Z,15.30
2018-11-03T07:35:46.863Z,13.90
2018-11-03T07:36:25.097Z,15.50
2018-11-03T07:37:04.038Z,14.77
2018-11-03T07:37:42.237Z,13.70
2018-11-03T07:38:21.136Z,14.17
2018-11-03T07:39:00.110Z,13.93
2018-11-03T07:39:38.090Z,13.07
2018-11-03T07:40:16.119Z,13.00
2018-11-03T07:40:54.224Z,11.63
2018-11-03T07:41:32.452Z,11.30
2018-11-03T07:42:12.669Z,11.50
2018-11-03T07:42:50.814Z,11.77
2018-11-03T07:43:28.890Z,13.20
2018-11-03T07:44:07.381Z,11.63
2018-11-03T07:44:45.402Z,12.27
2018-11-03T07:45:24.181Z,12.37
2018-11-03T07:46:02.277Z,11.23
2018-11-03T07:46:40.416Z,10.43
2018-11-03T07:47:18.391Z,11.67
2018-11-03T07:47:56.514Z,12.07
2018-11-03T07:48:34.908Z,12.37
2018-11-03T07:49:17.547Z,11.70
2018-11-03T07:49:55.511Z,11.63
2018-11-03T07:50:33.518Z,11.73
2018-11-03T07:51:12.274Z,11.90
2018-11-03T07:51:51.022Z,12.70
2018-11-03T07:52:28.985Z,12.40
2018-11-03T07:53:06.947Z,12.10
2018-11-03T07:53:45.007Z,12.30
2018-11-03T07:54:23.001Z,12.90
2018-11-03T07:55:01.193Z,13.07
2018-11-03T07:55:39.197Z,12.07
2018-11-03T07:56:17.217Z,11.67
2018-11-03T07:56:56.339Z,11.63
2018-11-03T07:57:34.307Z,11.80
2018-11-03T07:58:12.371Z,10.60
2018-11-03T07:58:50.267Z,10.70
2018-11-03T07:59:28.352Z,12.30
2018-11-03T08:00:06.261Z,12.20
2018-11-03T08:00:45.609Z,10.77
2018-11-03T08:01:23.763Z,11.87
2018-11-03T08:02:01.832Z,11.23
2018-11-03T08:02:39.805Z,10.70
2018-11-03T08:03:17.861Z,11.87
2018-11-03T08:03:55.810Z,12.10
2018-11-03T08:04:33.854Z,11.00
2018-11-03T08:05:13.482Z,10.80
2018-11-03T08:05:51.613Z,10.60
2018-11-03T08:06:29.630Z,11.00
2018-11-03T08:07:07.663Z,11.10
2018-11-03T08:07:46.504Z,11.63
2018-11-03T08:08:24.692Z,11.87
2018-11-03T08:09:02.728Z,11.13
2018-11-03T08:09:41.062Z,11.23
2018-11-03T08:10:19.014Z,12.43
2018-11-03T08:10:56.950Z,12.47
2018-11-03T08:11:34.994Z,11.43
2018-11-03T08:12:13.526Z,12.23
2018-11-03T08:12:51.648Z,11.57
2018-11-03T08:13:29.697Z,12.63
2018-11-03T08:14:07.598Z,11.40
2018-11-03T08:14:45.592Z,12.23
2018-11-03T08:15:23.658Z,12.27
2018-11-03T08:16:01.594Z,11.37
2018-11-03T08:16:39.577Z,12.33
2018-11-03T08:17:17.663Z,11.93
2018-11-03T08:17:56.166Z,11.27
2018-11-03T08:18:34.454Z,11.97
2018-11-03T08:19:12.510Z,11.90
2018-11-03T08:19:50.425Z,11.30
2018-11-03T08:20:28.388Z,13.57
2018-11-03T08:21:06.523Z,13.00
2018-11-03T08:21:44.457Z,13.13
2018-11-03T08:22:22.529Z,13.17
2018-11-03T08:23:00.640Z,12.53
2018-11-03T08:23:38.795Z,12.53
2018-11-03T08:24:16.632Z,11.83
2018-11-03T08:24:54.528Z,15.97
2018-11-03T08:25:32.472Z,25.20
2018-11-03T08:26:10.453Z,22.60
2018-11-03T08:26:48.482Z,20.53
2018-11-03T08:27:26.391Z,21.80
2018-11-03T08:28:04.229Z,42.40
2018-11-03T08:28:42.336Z,35.17
2018-11-03T08:29:20.434Z,31.43
2018-11-03T08:29:58.441Z,29.27
2018-11-03T08:30:36.364Z,30.03
2018-11-03T08:31:14.743Z,33.40
2018-11-03T08:31:52.928Z,32.47
2018-11-03T08:32:30.893Z,29.50
2018-11-03T08:33:08.857Z,32.07
2018-11-03T08:33:46.824Z,33.53
2018-11-03T08:34:24.725Z,28.47
2018-11-03T08:35:02.607Z,24.00
2018-11-03T08:35:41.488Z,20.50
2018-11-03T08:36:20.505Z,16.57
2018-11-03T08:36:58.417Z,14.50
2018-11-03T08:37:36.373Z,16.10
2018-11-03T08:38:14.748Z,16.67
2018-11-03T08:38:53.140Z,16.10
2018-11-03T08:39:32.484Z,13.80
2018-11-03T08:40:13.653Z,12.80
2018-11-03T08:40:51.939Z,11.93
2018-11-03T08:41:29.855Z,10.77
2018-11-03T08:42:08.143Z,10.80
2018-11-03T08:42:46.080Z,11.50
2018-11-03T08:43:24.247Z,10.87
2018-11-03T08:44:02.290Z,10.70
2018-11-03T08:44:40.258Z,10.50
2018-11-03T08:45:18.159Z,10.73
2018-11-03T08:45:56.321Z,10.60
2018-11-03T08:46:34.406Z,10.27
2018-11-03T08:47:12.554Z,10.30
2018-11-03T08:47:50.573Z,11.67
2018-11-03T08:48:28.854Z,18.90
2018-11-03T08:49:06.924Z,18.60
2018-11-03T08:49:44.947Z,19.77
2018-11-03T08:50:22.816Z,19.30
2018-11-03T08:51:01.923Z,19.40
2018-11-03T08:51:39.971Z,16.50
2018-11-03T08:52:18.265Z,15.57
2018-11-03T08:52:56.065Z,12.80
2018-11-03T08:53:34.027Z,12.23
2018-11-03T08:54:11.952Z,10.20
2018-11-03T08:54:49.988Z,10.03
2018-11-03T08:55:28.141Z,11.97
2018-11-03T08:56:06.097Z,12.07
2018-11-03T08:56:44.065Z,12.20
2018-11-03T08:57:22.034Z,10.13
2018-11-03T08:57:59.994Z,9.70
2018-11-03T08:58:37.875Z,11.00
2018-11-03T08:59:16.010Z,10.03
2018-11-03T08:59:54.147Z,10.60
2018-11-03T09:00:33.008Z,10.97
2018-11-03T09:01:10.919Z,10.50
2018-11-03T09:01:48.983Z,10.43
2018-11-03T09:02:27.042Z,9.67
2018-11-03T09:03:05.032Z,10.70
2018-11-03T09:03:42.877Z,9.50
2018-11-03T09:04:20.876Z,10.40
2018-11-03T09:04:58.868Z,12.43
2018-11-03T09:05:37.521Z,10.73
2018-11-03T09:06:15.457Z,10.40
2018-11-03T09:06:53.419Z,11.67
2018-11-03T09:07:31.303Z,10.73
2018-11-03T09:08:09.320Z,9.00
2018-11-03T09:08:47.375Z,10.50
2018-11-03T09:09:25.364Z,9.63
2018-11-03T09:10:03.390Z,10.73
2018-11-03T09:10:42.204Z,10.43
2018-11-03T09:11:20.202Z,10.90
2018-11-03T09:11:58.070Z,11.93
2018-11-03T09:12:36.879Z,11.90
2018-11-03T09:13:15.020Z,11.80
2018-11-03T09:13:52.985Z,12.00
2018-11-03T09:14:31.133Z,11.60
2018-11-03T09:15:11.022Z,13.03
2018-11-03T09:15:49.929Z,11.53
2018-11-03T09:16:27.966Z,13.10
2018-11-03T09:17:05.934Z,11.20
2018-11-03T09:17:44.843Z,10.33
2018-11-03T09:18:22.851Z,10.20
2018-11-03T09:19:02.526Z,10.87
2018-11-03T09:19:40.580Z,9.83
2018-11-03T09:20:18.539Z,10.20
2018-11-03T09:20:56.528Z,11.03
2018-11-03T09:21:34.574Z,11.70
2018-11-03T09:22:12.567Z,10.90
2018-11-03T09:22:50.605Z,10.87
2018-11-03T09:23:28.572Z,11.20
2018-11-03T09:24:06.785Z,10.53
2018-11-03T09:24:44.700Z,11.40
2018-11-03T09:25:22.789Z,11.30
2018-11-03T09:26:00.856Z,11.40
2018-11-03T09:26:38.837Z,11.37
2018-11-03T09:27:16.793Z,10.70
2018-11-03T09:27:54.669Z,10.90
2018-11-03T09:28:32.748Z,10.07
2018-11-03T09:29:11.482Z,11.07
2018-11-03T09:29:49.460Z,11.13
2018-11-03T09:30:27.465Z,12.60
2018-11-03T09:31:05.444Z,11.67
2018-11-03T09:31:43.573Z,11.63
2018-11-03T09:32:21.594Z,10.30
2018-11-03T09:32:59.730Z,10.90
2018-11-03T09:33:37.715Z,10.20
2018-11-03T09:34:15.720Z,8.40
2018-11-03T09:34:54.111Z,8.33
2018-11-03T09:35:32.131Z,8.37
2018-11-03T09:36:10.538Z,7.77
2018-11-03T09:36:48.384Z,7.53
2018-11-03T09:37:26.428Z,6.70
2018-11-03T09:38:04.526Z,5.90
2018-11-03T09:38:42.463Z,4.70
2018-11-03T09:39:20.437Z,6.53
2018-11-03T09:39:58.480Z,5.80
2018-11-03T09:40:36.397Z,4.70
2018-11-03T09:41:14.352Z,5.90
2018-11-03T09:41:52.368Z,5.60
2018-11-03T09:42:30.520Z,4.70
2018-11-03T09:43:09.197Z,4.40
2018-11-03T09:43:47.275Z,5.90
2018-11-03T09:44:25.539Z,5.17
2018-11-03T09:45:03.654Z,5.10
2018-11-03T09:45:41.730Z,5.83
2018-11-03T09:46:19.814Z,5.20
2018-11-03T09:46:57.699Z,5.53
2018-11-03T09:47:35.663Z,4.43
2018-11-03T09:48:14.766Z,4.42
2018-11-03T09:48:52.755Z,4.50
2018-11-03T09:49:30.828Z,4.80
2018-11-03T09:50:09.216Z,4.37
2018-11-03T09:50:47.278Z,4.87
2018-11-03T09:51:25.336Z,5.27
2018-11-03T09:52:03.323Z,5.00
2018-11-03T09:52:41.743Z,4.80
2018-11-03T09:53:19.740Z,4.70
2018-11-03T09:53:57.649Z,4.00
2018-11-03T09:54:35.660Z,5.13
2018-11-03T09:55:17.111Z,4.87
2018-11-03T09:55:54.971Z,5.03
2018-11-03T09:56:32.917Z,5.33
2018-11-03T09:57:12.093Z,5.43
2018-11-03T09:57:50.213Z,6.03
2018-11-03T09:58:28.230Z,5.67
2018-11-03T09:59:06.231Z,5.33
2018-11-03T09:59:44.253Z,5.93
2018-11-03T10:00:23.326Z,5.83
2018-11-03T10:01:01.342Z,5.30
2018-11-03T10:01:39.299Z,5.40
2018-11-03T10:02:17.454Z,5.73
2018-11-03T10:02:55.438Z,5.67
2018-11-03T10:03:33.682Z,6.70
2018-11-03T10:04:11.662Z,5.87
2018-11-03T10:04:49.676Z,6.57
2018-11-03T10:05:27.805Z,6.27
2018-11-03T10:06:05.802Z,6.33
2018-11-03T10:06:43.916Z,6.10
2018-11-03T10:07:22.020Z,6.87
2018-11-03T10:08:02.220Z,6.53
2018-11-03T10:08:40.279Z,7.27
2018-11-03T10:09:18.072Z,6.43
2018-11-03T10:09:56.161Z,7.10
2018-11-03T10:10:34.069Z,6.70
2018-11-03T10:11:11.996Z,6.67
2018-11-03T10:11:50.008Z,6.43
2018-11-03T10:12:28.981Z,6.90
2018-11-03T10:13:07.141Z,6.57
2018-11-03T10:13:44.998Z,6.47
2018-11-03T10:14:23.182Z,6.47
2018-11-03T10:15:01.071Z,6.10
2018-11-03T10:15:39.188Z,6.80
2018-11-03T10:16:17.037Z,6.90
2018-11-03T10:16:55.202Z,6.07
2018-11-03T10:17:33.234Z,7.10
2018-11-03T10:18:11.269Z,7.70
2018-11-03T10:18:49.275Z,7.40
2018-11-03T10:19:27.420Z,6.57
2018-11-03T10:20:05.408Z,6.80
2018-11-03T10:20:45.325Z,6.37
2018-11-03T10:21:23.199Z,6.00
2018-11-03T10:22:01.129Z,5.97
2018-11-03T10:22:39.376Z,6.47
2018-11-03T10:23:18.536Z,6.90
2018-11-03T10:23:56.553Z,6.57
2018-11-03T10:24:34.686Z,7.33
2018-11-03T10:25:16.747Z,7.80
2018-11-03T10:25:54.715Z,7.80
2018-11-03T10:26:32.712Z,7.43
2018-11-03T10:27:10.751Z,8.83
2018-11-03T10:27:49.371Z,8.03
2018-11-03T10:28:27.279Z,7.60
2018-11-03T10:29:05.201Z,8.30
2018-11-03T10:29:43.175Z,7.90
2018-11-03T10:30:21.296Z,7.53
2018-11-03T10:30:59.989Z,8.70
2018-11-03T10:31:38.468Z,8.63
2018-11-03T10:32:16.425Z,8.57
2018-11-03T10:32:54.508Z,8.87
2018-11-03T10:33:32.709Z,8.70
2018-11-03T10:34:11.648Z,10.37
2018-11-03T10:34:49.642Z,9.97
2018-11-03T10:35:27.705Z,8.70
2018-11-03T10:36:05.698Z,8.77
2018-11-03T10:36:43.737Z,9.03
2018-11-03T10:37:21.702Z,9.87
2018-11-03T10:38:00.592Z,9.23
2018-11-03T10:38:38.548Z,10.07
2018-11-03T10:39:16.693Z,9.83
2018-11-03T10:39:54.523Z,8.30
2018-11-03T10:40:32.769Z,9.03
2018-11-03T10:41:11.725Z,8.43
2018-11-03T10:41:49.725Z,8.33
2018-11-03T10:42:27.755Z,8.47
2018-11-03T10:43:05.725Z,7.80
2018-11-03T10:43:43.542Z,8.13
2018-11-03T10:44:21.488Z,8.17
2018-11-03T10:44:59.404Z,8.97
2018-11-03T10:45:38.001Z,8.60
2018-11-03T10:46:16.227Z,9.00
2018-11-03T10:46:54.220Z,8.10
2018-11-03T10:47:32.392Z,9.47
2018-11-03T10:48:10.637Z,8.70
2018-11-03T10:48:48.520Z,7.90
2018-11-03T10:49:26.452Z,8.00
2018-11-03T10:50:04.303Z,8.80
2018-11-03T10:50:42.425Z,9.77
2018-11-03T10:51:20.388Z,8.27
2018-11-03T10:51:58.441Z,7.07
2018-11-03T10:52:36.415Z,6.60
2018-11-03T10:53:15.292Z,7.17
2018-11-03T10:53:53.261Z,6.73
2018-11-03T10:54:31.196Z,6.70
2018-11-03T10:55:09.888Z,7.93
2018-11-03T10:55:47.873Z,7.50
2018-11-03T10:56:25.861Z,7.70
2018-11-03T10:57:03.903Z,6.43
2018-11-03T10:57:43.050Z,6.87
2018-11-03T10:58:20.948Z,7.30
2018-11-03T10:58:58.841Z,6.97
2018-11-03T10:59:37.088Z,7.57
2018-11-03T11:00:23.527Z,8.00
2018-11-03T11:01:06.029Z,8.90
2018-11-03T11:01:48.066Z,9.80
2018-11-03T11:02:30.420Z,8.93
2018-11-03T11:03:12.509Z,8.57
2018-11-03T11:03:54.665Z,8.40
2018-11-03T11:04:36.943Z,7.73
2018-11-03T11:05:20.041Z,7.87
2018-11-03T11:06:02.025Z,7.60
2018-11-03T11:06:44.176Z,8.63
2018-11-03T11:07:26.252Z,8.10
2018-11-03T11:08:09.594Z,7.67
2018-11-03T11:08:51.664Z,7.80
2018-11-03T11:09:37.122Z,8.30
2018-11-03T11:10:19.040Z,8.30
2018-11-03T11:11:01.063Z,7.63
2018-11-03T11:11:43.084Z,7.27
2018-11-03T11:13:25.606Z,6.73
2018-11-03T11:14:03.700Z,7.83
2018-11-03T11:14:41.924Z,7.10
2018-11-03T11:15:19.960Z,7.63
2018-11-03T11:15:59.567Z,8.00
2018-11-03T11:16:37.742Z,7.37
2018-11-03T11:17:15.740Z,6.90
2018-11-03T11:17:54.338Z,7.37
2018-11-03T11:18:32.205Z,7.63
2018-11-03T11:19:10.079Z,6.73
2018-11-03T11:19:48.034Z,7.20
2018-11-03T11:20:25.972Z,7.03
2018-11-03T11:21:03.864Z,8.07
2018-11-03T11:21:41.849Z,8.27
2018-11-03T11:22:20.969Z,8.87
2018-11-03T11:22:59.903Z,9.83
2018-11-03T11:23:37.854Z,10.40
2018-11-03T11:24:16.280Z,9.17
2018-11-03T11:24:55.119Z,8.80
2018-11-03T11:25:33.136Z,8.07
2018-11-03T11:26:11.192Z,9.07
2018-11-03T11:26:49.077Z,11.30
2018-11-03T11:27:27.133Z,13.70
2018-11-03T11:28:05.180Z,14.10
2018-11-03T11:28:43.145Z,14.50
2018-11-03T11:29:21.124Z,14.90
2018-11-03T11:29:59.245Z,13.67
2018-11-03T11:30:38.626Z,11.93
2018-11-03T11:31:16.508Z,12.03
2018-11-03T11:31:54.561Z,13.10
2018-11-03T11:32:32.558Z,12.40
2018-11-03T11:33:12.949Z,12.20
2018-11-03T11:33:51.036Z,10.37
2018-11-03T11:34:28.982Z,10.57
2018-11-03T11:35:06.859Z,9.50
2018-11-03T11:35:44.981Z,8.90
2018-11-03T11:36:23.126Z,8.07
2018-11-03T11:37:01.049Z,8.87
2018-11-03T11:37:39.525Z,8.10
2018-11-03T11:38:18.000Z,7.83
2018-11-03T11:38:56.843Z,8.60
2018-11-03T11:39:34.950Z,8.00
2018-11-03T11:40:12.912Z,7.20
2018-11-03T11:40:50.913Z,8.50
2018-11-03T11:41:28.941Z,8.23
2018-11-03T11:42:07.685Z,10.40
2018-11-03T11:42:45.641Z,9.73
2018-11-03T11:43:23.600Z,8.10
2018-11-03T11:44:01.581Z,8.07
2018-11-03T11:44:39.634Z,7.90
2018-11-03T11:45:17.733Z,7.20
2018-11-03T11:45:55.765Z,8.50
2018-11-03T11:46:35.025Z,8.70
2018-11-03T11:47:12.912Z,8.57
2018-11-03T11:47:50.794Z,7.80
2018-11-03T11:48:28.890Z,8.97
2018-11-03T11:49:06.800Z,7.50